createdAt,value
2022-12-25T00:02:25.218Z,12.65
2022-12-25T00:04:53.343Z,14.63
2022-12-25T00:07:20.629Z,16.13
2022-12-25T00:09:48.145Z,15.02
2022-12-25T00:12:15.437Z,12.60
2022-12-25T00:14:42.818Z,14.30
2022-12-25T00:17:10.260Z,14.93
2022-12-25T00:19:37.793Z,15.02
2022-12-25T00:22:05.071Z,14.05
2022-12-25T00:24:32.643Z,15.43
2022-12-25T00:26:59.917Z,18.17
2022-12-25T00:29:27.368Z,13.82
2022-12-25T00:31:54.954Z,14.13
2022-12-25T00:34:22.486Z,15.07
2022-12-25T00:36:52.481Z,12.52
2022-12-25T00:42:05.034Z,13.45
2022-12-25T00:44:32.996Z,17.75
2022-12-25T00:47:03.566Z,16.33
2022-12-25T00:49:31.156Z,16.17
2022-12-25T00:52:03.762Z,15.25
2022-12-25T00:54:33.640Z,16.03
2022-12-25T00:57:01.369Z,18.33
2022-12-25T00:59:32.510Z,16.92
2022-12-25T01:01:59.758Z,17.67
2022-12-25T01:04:27.359Z,13.93
2022-12-25T01:06:54.594Z,14.75
2022-12-25T01:09:21.954Z,16.75
2022-12-25T01:11:51.425Z,17.63
2022-12-25T01:14:18.960Z,17.02
2022-12-25T01:16:46.120Z,14.98
2022-12-25T01:19:13.836Z,14.40
2022-12-25T01:21:41.032Z,16.13
2022-12-25T01:24:08.636Z,16.88
2022-12-25T01:26:35.996Z,18.17
2022-12-25T01:29:03.542Z,18.08
2022-12-25T01:31:30.766Z,20.83
2022-12-25T01:33:58.573Z,13.15
2022-12-25T01:36:26.996Z,12.48
2022-12-25T01:38:54.711Z,13.90
2022-12-25T01:41:24.380Z,13.98
2022-12-25T01:43:57.717Z,14.20
2022-12-25T01:46:25.056Z,16.00
2022-12-25T01:48:54.966Z,12.43
2022-12-25T01:51:24.451Z,15.27
2022-12-25T01:53:54.918Z,17.80
2022-12-25T01:56:25.254Z,15.82
2022-12-25T01:58:57.448Z,13.07
2022-12-25T02:01:26.862Z,14.77
2022-12-25T02:04:02.681Z,15.45
2022-12-25T02:06:30.133Z,18.55
2022-12-25T02:08:59.233Z,15.07
2022-12-25T02:11:26.431Z,15.48
2022-12-25T02:13:53.960Z,16.30
2022-12-25T02:16:24.881Z,16.63
2022-12-25T02:19:05.936Z,14.93
2022-12-25T02:21:46.710Z,18.27
2022-12-25T02:24:44.999Z,10.82
2022-12-25T02:27:37.424Z,16.63
2022-12-25T02:30:05.246Z,16.10
2022-12-25T02:32:51.523Z,14.63
2022-12-25T02:35:25.308Z,15.60
2022-12-25T02:38:13.139Z,12.77
2022-12-25T02:40:52.533Z,13.75
2022-12-25T02:43:32.508Z,17.33
2022-12-25T02:46:04.177Z,15.05
2022-12-25T02:48:35.002Z,15.70
2022-12-25T02:51:06.248Z,17.52
2022-12-25T02:53:34.692Z,19.38
2022-12-25T02:56:02.631Z,15.65
2022-12-25T02:58:31.348Z,13.73
2022-12-25T03:03:40.489Z,17.20
2022-12-25T03:06:09.094Z,16.42
2022-12-25T03:08:40.680Z,14.98
2022-12-25T03:11:11.429Z,16.63
2022-12-25T03:13:41.502Z,17.83
2022-12-25T03:16:09.080Z,19.15
2022-12-25T03:18:36.268Z,18.73
2022-12-25T03:21:03.942Z,18.52
2022-12-25T03:23:37.357Z,17.00
2022-12-25T03:28:32.087Z,15.82
2022-12-25T03:31:18.033Z,15.88
2022-12-25T03:34:04.896Z,17.92
2022-12-25T03:36:39.490Z,17.17
2022-12-25T03:39:16.004Z,15.20
2022-12-25T03:41:48.991Z,14.73
2022-12-25T03:44:28.032Z,17.73
2022-12-25T03:47:05.409Z,15.35
2022-12-25T03:50:01.231Z,16.98
2022-12-25T03:52:29.905Z,16.52
2022-12-25T03:55:03.694Z,17.13
2022-12-25T03:57:35.101Z,18.00
2022-12-25T04:00:05.089Z,14.68
2022-12-25T04:02:32.992Z,19.98
2022-12-25T04:05:00.333Z,19.90
2022-12-25T04:07:27.998Z,21.38
2022-12-25T04:09:55.120Z,18.45
2022-12-25T04:12:22.739Z,24.27
2022-12-25T04:14:49.905Z,25.63
2022-12-25T04:17:17.365Z,23.58
2022-12-25T04:19:44.462Z,27.42
2022-12-25T04:22:12.069Z,27.85
2022-12-25T04:24:41.533Z,24.35
2022-12-25T04:27:08.914Z,25.98
2022-12-25T04:29:36.237Z,25.48
2022-12-25T04:32:03.629Z,28.85
2022-12-25T04:34:30.815Z,28.00
2022-12-25T04:37:00.732Z,30.95
2022-12-25T04:39:27.808Z,30.35
2022-12-25T04:41:55.152Z,29.80
2022-12-25T04:44:22.489Z,31.17
2022-12-25T04:46:52.258Z,36.50
2022-12-25T04:49:19.389Z,38.42
2022-12-25T04:51:46.946Z,35.60
2022-12-25T04:54:16.310Z,31.65
2022-12-25T04:56:45.955Z,35.08
2022-12-25T04:59:13.553Z,36.92
2022-12-25T05:01:41.265Z,33.53
2022-12-25T05:04:08.507Z,31.15
2022-12-25T05:06:38.466Z,30.27
2022-12-25T05:09:05.837Z,26.73
2022-12-25T05:11:33.336Z,36.45
2022-12-25T05:14:00.612Z,31.25
2022-12-25T05:16:28.328Z,28.35
2022-12-25T05:18:55.511Z,30.00
2022-12-25T05:21:23.541Z,23.90
2022-12-25T05:23:51.950Z,25.23
2022-12-25T05:26:22.141Z,29.60
2022-12-25T05:28:50.092Z,25.98
2022-12-25T05:31:18.171Z,29.15
2022-12-25T05:33:45.851Z,35.15
2022-12-25T05:36:13.346Z,34.15
2022-12-25T05:38:40.588Z,25.80
2022-12-25T05:41:07.993Z,27.15
2022-12-25T05:43:35.185Z,26.10
2022-12-25T05:46:10.035Z,33.10
2022-12-25T05:48:39.920Z,28.73
2022-12-25T05:51:10.107Z,28.80
2022-12-25T05:53:37.971Z,23.88
2022-12-25T05:56:07.149Z,25.20
2022-12-25T05:58:36.378Z,29.10
2022-12-25T06:01:04.343Z,29.80
2022-12-25T06:03:31.808Z,28.65
2022-12-25T06:05:59.350Z,27.30
2022-12-25T06:08:26.448Z,26.10
2022-12-25T06:10:53.959Z,25.25
2022-12-25T06:13:21.052Z,25.83
2022-12-25T06:15:48.527Z,24.33
2022-12-25T06:18:15.779Z,24.73
2022-12-25T06:20:45.839Z,27.15
2022-12-25T06:23:13.116Z,21.13
2022-12-25T06:25:40.985Z,25.85
2022-12-25T06:28:08.424Z,28.50
2022-12-25T06:30:38.445Z,23.77
2022-12-25T06:33:05.795Z,22.45
2022-12-25T06:35:38.195Z,28.70
2022-12-25T06:38:05.407Z,20.48
2022-12-25T06:40:34.161Z,24.50
2022-12-25T06:43:01.229Z,22.80
2022-12-25T06:45:28.871Z,23.85
2022-12-25T06:47:56.178Z,26.40
2022-12-25T06:50:25.815Z,26.08
2022-12-25T06:52:53.124Z,26.35
2022-12-25T06:55:20.738Z,28.27
2022-12-25T06:57:47.851Z,29.25
2022-12-25T07:00:15.557Z,31.45
2022-12-25T07:02:48.283Z,30.70
2022-12-25T07:05:16.158Z,33.25
2022-12-25T07:07:43.705Z,35.15
2022-12-25T07:10:11.453Z,39.60
2022-12-25T07:12:38.613Z,38.65
2022-12-25T07:15:06.824Z,38.03
2022-12-25T07:17:34.869Z,32.58
2022-12-25T07:20:02.489Z,49.85
2022-12-25T07:22:30.001Z,44.88
2022-12-25T07:24:57.539Z,40.80
2022-12-25T07:27:24.789Z,43.38
2022-12-25T07:29:52.296Z,44.92
2022-12-25T07:32:19.553Z,43.08
2022-12-25T07:34:47.104Z,40.58
2022-12-25T07:37:14.352Z,42.72
2022-12-25T07:39:41.959Z,36.85
2022-12-25T07:42:11.374Z,32.85
2022-12-25T07:44:39.171Z,34.25
2022-12-25T07:47:08.561Z,32.65
2022-12-25T07:49:36.613Z,31.23
2022-12-25T07:52:04.185Z,33.50
2022-12-25T07:54:31.607Z,33.25
2022-12-25T07:57:01.354Z,33.60
2022-12-25T07:59:28.967Z,33.13
2022-12-25T08:01:56.429Z,30.48
2022-12-25T08:04:24.086Z,31.98
2022-12-25T08:06:51.516Z,34.10
2022-12-25T08:09:18.933Z,29.05
2022-12-25T08:11:47.042Z,32.97
2022-12-25T08:14:15.637Z,32.05
2022-12-25T08:16:42.845Z,32.60
2022-12-25T08:19:10.840Z,30.55
2022-12-25T08:21:38.466Z,30.75
2022-12-25T08:24:08.329Z,33.42
2022-12-25T08:26:35.650Z,32.75
2022-12-25T08:29:03.478Z,33.88
2022-12-25T08:31:31.203Z,32.78
2022-12-25T08:34:01.963Z,32.20
2022-12-25T08:36:29.399Z,32.42
2022-12-25T08:39:02.697Z,29.00
2022-12-25T08:41:33.892Z,32.35
2022-12-25T08:44:01.291Z,32.30
2022-12-25T08:46:28.472Z,34.42
2022-12-25T08:48:56.897Z,33.47
2022-12-25T08:51:25.842Z,33.03
2022-12-25T08:53:58.084Z,30.75
2022-12-25T08:56:26.056Z,32.53
2022-12-25T08:58:53.494Z,34.28
2022-12-25T09:01:20.778Z,30.42
2022-12-25T09:03:48.567Z,30.73
2022-12-25T09:06:16.415Z,33.72
2022-12-25T09:08:49.018Z,27.25
2022-12-25T09:11:17.615Z,23.60
2022-12-25T09:13:45.473Z,19.98
2022-12-25T09:16:18.295Z,15.85
2022-12-25T09:18:46.555Z,17.58
2022-12-25T09:21:15.812Z,13.85
2022-12-25T09:23:45.535Z,12.88
2022-12-25T09:26:15.964Z,13.63
2022-12-25T09:28:50.765Z,14.43
2022-12-25T09:31:21.249Z,12.70
2022-12-25T09:33:49.645Z,20.40
2022-12-25T09:36:16.848Z,14.13
2022-12-25T09:38:44.793Z,12.90
2022-12-25T09:41:36.110Z,14.98
2022-12-25T09:44:15.841Z,15.23
2022-12-25T09:46:53.963Z,18.20
2022-12-25T09:49:44.904Z,20.70
2022-12-25T09:52:16.917Z,18.33
2022-12-25T09:54:50.540Z,24.02
2022-12-25T09:57:17.671Z,19.85
2022-12-25T09:59:47.298Z,19.65
2022-12-25T10:02:47.094Z,19.67
2022-12-25T10:05:43.965Z,21.00
2022-12-25T10:08:30.159Z,18.77
2022-12-25T10:11:04.646Z,18.77
2022-12-25T10:14:04.150Z,19.33
2022-12-25T10:16:31.722Z,17.17
2022-12-25T10:19:03.233Z,17.60
2022-12-25T10:21:34.857Z,15.55
2022-12-25T10:24:17.010Z,13.77
2022-12-25T10:26:45.808Z,14.43
2022-12-25T10:29:19.882Z,15.02
2022-12-25T10:31:50.167Z,12.95
2022-12-25T10:34:17.722Z,16.48
2022-12-25T10:36:46.327Z,12.48
2022-12-25T10:39:23.469Z,13.38
2022-12-25T10:42:10.085Z,13.52
2022-12-25T10:44:37.505Z,13.82
2022-12-25T10:47:05.440Z,18.48
2022-12-25T10:49:39.938Z,16.88
2022-12-25T10:52:27.812Z,16.15
2022-12-25T10:54:56.273Z,14.02
2022-12-25T10:57:26.452Z,16.88
2022-12-25T10:59:56.068Z,16.67
2022-12-25T11:02:35.611Z,17.88
2022-12-25T11:05:09.358Z,18.58
2022-12-25T11:07:47.206Z,18.58
2022-12-25T11:10:40.807Z,18.35
2022-12-25T11:13:19.816Z,16.02
2022-12-25T11:16:00.637Z,18.88
2022-12-25T11:18:32.938Z,17.63
2022-12-25T11:21:15.315Z,16.92
2022-12-25T11:23:48.652Z,17.17
2022-12-25T11:26:19.517Z,19.10
2022-12-25T11:28:54.231Z,19.48
2022-12-25T11:31:25.647Z,18.90
2022-12-25T11:34:07.203Z,20.25
2022-12-25T11:36:48.890Z,20.35
2022-12-25T11:39:23.988Z,22.55
2022-12-25T11:42:06.934Z,27.23
2022-12-25T11:44:57.021Z,29.50
2022-12-25T11:47:37.607Z,25.33
2022-12-25T11:50:31.331Z,21.70
2022-12-25T11:53:02.478Z,24.42
2022-12-25T11:55:47.274Z,23.55
2022-12-25T11:58:23.572Z,24.02
2022-12-25T12:00:54.459Z,23.05
2022-12-25T12:03:33.703Z,21.92
2022-12-25T12:06:38.622Z,19.60
2022-12-25T12:09:22.453Z,18.27
2022-12-25T12:12:33.177Z,24.55
2022-12-25T12:15:21.778Z,20.80
2022-12-25T12:17:49.687Z,24.88
2022-12-25T12:20:32.299Z,23.38
2022-12-25T12:23:03.214Z,24.17
2022-12-25T12:25:31.181Z,19.40
2022-12-25T12:28:05.372Z,20.58
2022-12-25T12:30:36.916Z,23.27
2022-12-25T12:33:08.070Z,22.00
2022-12-25T12:35:39.859Z,18.10
2022-12-25T12:38:28.024Z,20.40
2022-12-25T12:41:07.610Z,17.13
2022-12-25T12:43:52.995Z,20.75
2022-12-25T12:46:31.594Z,20.77
2022-12-25T12:49:25.259Z,17.60
2022-12-25T12:52:32.422Z,18.80
2022-12-25T12:55:11.735Z,17.42
2022-12-25T12:57:39.788Z,21.70
2022-12-25T13:00:16.058Z,20.27
2022-12-25T13:03:02.348Z,18.92
2022-12-25T13:05:48.884Z,25.05
2022-12-25T13:08:49.203Z,17.52
2022-12-25T13:11:23.734Z,21.08
2022-12-25T13:13:53.962Z,18.77
2022-12-25T13:16:29.300Z,14.73
2022-12-25T13:18:57.118Z,18.63
2022-12-25T13:21:28.103Z,20.50
2022-12-25T13:24:00.535Z,18.33
2022-12-25T13:26:29.615Z,17.83
2022-12-25T13:28:57.066Z,17.88
2022-12-25T13:31:27.120Z,19.60
2022-12-25T13:34:06.443Z,18.58
2022-12-25T13:36:39.982Z,19.02
2022-12-25T13:39:16.228Z,21.00
2022-12-25T13:41:49.067Z,22.92
2022-12-25T13:44:26.278Z,22.02
2022-12-25T13:46:55.915Z,23.60
2022-12-25T13:49:26.627Z,26.63
2022-12-25T13:52:10.985Z,26.48
2022-12-25T13:54:38.590Z,28.55
2022-12-25T13:57:12.244Z,30.95
2022-12-25T13:59:39.629Z,28.23
2022-12-25T14:02:19.199Z,25.85
2022-12-25T14:04:46.706Z,26.98
2022-12-25T14:07:21.036Z,28.27
2022-12-25T14:09:58.295Z,28.08
2022-12-25T14:12:27.579Z,23.80
2022-12-25T14:14:58.530Z,22.90
2022-12-25T14:17:26.428Z,26.45
2022-12-25T14:20:03.813Z,22.95
2022-12-25T14:22:38.969Z,23.20
2022-12-25T14:25:17.057Z,25.50
2022-12-25T14:27:50.676Z,23.48
2022-12-25T14:30:18.686Z,22.48
2022-12-25T14:32:50.047Z,29.63
2022-12-25T14:35:23.812Z,26.80
2022-12-25T14:37:56.931Z,23.20
2022-12-25T14:40:32.143Z,26.00
2022-12-25T14:43:01.041Z,35.35
2022-12-25T14:45:32.866Z,29.98
2022-12-25T14:48:21.233Z,36.97
2022-12-25T14:51:05.114Z,38.58
2022-12-25T14:53:40.923Z,34.10
2022-12-25T14:56:09.316Z,37.65
2022-12-25T14:58:42.780Z,37.03
2022-12-25T15:01:40.935Z,28.88
2022-12-25T15:04:11.620Z,28.45
2022-12-25T15:07:12.145Z,29.88
2022-12-25T15:09:39.671Z,32.08
2022-12-25T15:12:06.819Z,32.03
2022-12-25T15:14:34.192Z,36.63
2022-12-25T15:17:01.908Z,32.75
2022-12-25T15:19:38.303Z,31.25
2022-12-25T15:22:10.057Z,27.20
2022-12-25T15:24:37.603Z,29.23
2022-12-25T15:27:06.088Z,26.90
2022-12-25T15:30:08.458Z,23.88
2022-12-25T15:32:25.776Z,23.75
2022-12-25T15:34:55.994Z,27.05
2022-12-25T15:37:25.558Z,21.95
2022-12-25T15:39:55.506Z,18.77
2022-12-25T15:42:24.228Z,21.65
2022-12-25T15:44:52.586Z,22.80
2022-12-25T15:47:20.172Z,33.50
2022-12-25T15:49:48.020Z,34.15
2022-12-25T15:52:17.964Z,33.42
2022-12-25T15:54:45.592Z,38.00
2022-12-25T15:57:22.301Z,41.25
2022-12-25T15:59:49.894Z,35.60
2022-12-25T16:02:20.157Z,35.30
2022-12-25T16:04:47.908Z,28.70
2022-12-25T16:07:22.955Z,29.98
2022-12-25T16:09:50.677Z,32.17
2022-12-25T16:12:19.564Z,35.03
2022-12-25T16:14:46.968Z,35.85
2022-12-25T16:17:14.861Z,30.90
2022-12-25T16:19:43.032Z,20.95
2022-12-25T16:22:28.393Z,26.33
2022-12-25T16:24:55.878Z,26.58
2022-12-25T16:27:25.425Z,20.80
2022-12-25T16:29:52.832Z,19.45
2022-12-25T16:32:22.383Z,19.27
2022-12-25T16:34:52.004Z,24.42
2022-12-25T16:37:19.374Z,26.38
2022-12-25T16:39:46.987Z,27.20
2022-12-25T16:42:14.249Z,24.80
2022-12-25T16:44:41.784Z,25.50
2022-12-25T16:47:09.161Z,24.30
2022-12-25T16:49:36.543Z,21.55
2022-12-25T16:52:03.774Z,23.80
2022-12-25T16:54:31.240Z,23.73
2022-12-25T16:56:58.327Z,23.73
2022-12-25T16:59:28.819Z,26.38
2022-12-25T17:01:58.682Z,27.20
2022-12-25T17:04:29.768Z,19.55
2022-12-25T17:06:59.394Z,24.63
2022-12-25T17:09:26.947Z,30.52
2022-12-25T17:11:54.136Z,29.58
2022-12-25T17:14:21.524Z,23.02
2022-12-25T17:16:48.733Z,24.58
2022-12-25T17:19:19.347Z,27.60
2022-12-25T17:21:46.928Z,24.33
2022-12-25T17:24:15.090Z,18.15
2022-12-25T17:26:42.499Z,19.77
2022-12-25T17:29:12.834Z,19.45
2022-12-25T17:31:45.617Z,22.92
2022-12-25T17:34:13.114Z,16.75
2022-12-25T17:36:40.275Z,19.33
2022-12-25T17:39:07.881Z,26.60
2022-12-25T17:41:37.565Z,21.42
2022-12-25T17:44:05.201Z,16.35
2022-12-25T17:46:32.982Z,21.80
2022-12-25T17:49:01.530Z,20.17
2022-12-25T17:51:31.869Z,19.98
2022-12-25T17:54:02.291Z,16.83
2022-12-25T17:56:29.704Z,22.60
2022-12-25T17:58:59.416Z,21.58
2022-12-25T18:01:28.201Z,19.48
2022-12-25T18:03:55.887Z,20.58
2022-12-25T18:06:26.534Z,17.55
2022-12-25T18:08:55.527Z,18.75
2022-12-25T18:11:25.467Z,17.60
2022-12-25T18:13:53.022Z,19.73
2022-12-25T18:16:22.429Z,19.30
2022-12-25T18:18:52.495Z,17.40
2022-12-25T18:21:23.725Z,20.50
2022-12-25T18:23:51.613Z,19.70
2022-12-25T18:26:20.235Z,17.05
2022-12-25T18:28:53.113Z,13.77
2022-12-25T18:31:23.450Z,13.60
2022-12-25T18:33:51.346Z,13.25
2022-12-25T18:36:24.499Z,16.95
2022-12-25T18:38:53.800Z,20.52
2022-12-25T18:41:21.951Z,15.90
2022-12-25T18:43:54.238Z,24.70
2022-12-25T18:46:25.345Z,18.58
2022-12-25T18:48:56.897Z,24.10
2022-12-25T18:51:24.753Z,20.20
2022-12-25T18:53:52.132Z,15.27
2022-12-25T18:56:21.722Z,17.63
2022-12-25T18:58:49.367Z,19.92
2022-12-25T19:01:23.925Z,16.08
2022-12-25T19:03:57.212Z,22.20
2022-12-25T19:06:29.696Z,17.02
2022-12-25T19:08:57.699Z,15.32
2022-12-25T19:11:25.040Z,15.07
2022-12-25T19:13:55.094Z,16.52
2022-12-25T19:16:27.298Z,17.88
2022-12-25T19:18:57.060Z,18.88
2022-12-25T19:21:24.340Z,15.30
2022-12-25T19:23:53.537Z,17.98
2022-12-25T19:26:20.856Z,19.77
2022-12-25T19:28:48.346Z,21.40
2022-12-25T19:31:15.406Z,15.45
2022-12-25T19:33:45.341Z,20.67
2022-12-25T19:36:15.048Z,18.52
2022-12-25T19:38:42.955Z,18.65
2022-12-25T19:41:18.383Z,20.40
2022-12-25T19:43:48.022Z,18.15
2022-12-25T19:46:20.882Z,19.55
2022-12-25T19:48:48.856Z,21.20
2022-12-25T19:51:26.460Z,17.42
2022-12-25T19:53:55.112Z,17.30
2022-12-25T19:56:23.349Z,16.75
2022-12-25T19:58:50.921Z,17.10
2022-12-25T20:01:20.435Z,16.25
2022-12-25T20:03:49.207Z,18.85
2022-12-25T20:06:22.700Z,17.20
2022-12-25T20:08:53.014Z,19.08
2022-12-25T20:11:21.669Z,17.05
2022-12-25T20:13:49.277Z,17.58
2022-12-25T20:16:17.003Z,19.83
2022-12-25T20:18:44.748Z,17.67
2022-12-25T20:21:14.907Z,14.93
2022-12-25T20:23:43.849Z,15.50
2022-12-25T20:26:14.576Z,18.45
2022-12-25T20:28:42.404Z,20.10
2022-12-25T20:31:16.820Z,17.85
2022-12-25T20:33:45.041Z,15.48
2022-12-25T20:36:12.771Z,19.98
2022-12-25T20:38:40.728Z,21.30
2022-12-25T20:41:30.049Z,21.45
2022-12-25T20:43:58.307Z,19.73
2022-12-25T20:46:26.297Z,18.30
2022-12-25T20:48:56.366Z,23.80
2022-12-25T20:51:27.018Z,16.90
2022-12-25T20:53:55.315Z,17.42
2022-12-25T20:56:26.856Z,20.23
2022-12-25T20:58:56.457Z,17.70
2022-12-25T21:01:23.948Z,18.02
2022-12-25T21:03:51.947Z,17.58
2022-12-25T21:06:21.928Z,16.42
2022-12-25T21:08:49.656Z,18.98
2022-12-25T21:11:19.691Z,18.13
2022-12-25T21:13:47.529Z,18.25
2022-12-25T21:16:17.993Z,16.15
2022-12-25T21:18:45.596Z,23.60
2022-12-25T21:21:13.268Z,18.00
2022-12-25T21:23:43.070Z,22.17
2022-12-25T21:26:17.053Z,22.50
2022-12-25T21:28:45.115Z,18.75
2022-12-25T21:31:12.497Z,18.55
2022-12-25T21:33:45.978Z,15.27
2022-12-25T21:36:13.379Z,19.73
2022-12-25T21:38:43.400Z,18.02
2022-12-25T21:41:13.182Z,19.77
2022-12-25T21:43:41.733Z,20.40
2022-12-25T21:46:11.935Z,20.45
2022-12-25T21:48:42.639Z,23.77
2022-12-25T21:51:20.110Z,26.33
2022-12-25T21:53:47.717Z,17.98
2022-12-25T21:56:15.038Z,16.80
2022-12-25T21:58:44.833Z,20.00
2022-12-25T22:01:11.953Z,21.23
2022-12-25T22:03:42.986Z,23.20
2022-12-25T22:06:13.709Z,18.23
2022-12-25T22:08:48.711Z,16.67
2022-12-25T22:11:18.584Z,16.48
2022-12-25T22:13:46.074Z,16.75
2022-12-25T22:16:15.760Z,18.67
2022-12-25T22:18:43.197Z,18.40
2022-12-25T22:21:18.784Z,20.88
2022-12-25T22:23:47.062Z,23.08
2022-12-25T22:26:20.450Z,19.45
2022-12-25T22:28:50.588Z,16.35
2022-12-25T22:31:20.057Z,23.50
2022-12-25T22:33:47.500Z,16.83
2022-12-25T22:36:14.763Z,18.17
2022-12-25T22:38:42.959Z,21.13
2022-12-25T22:41:10.171Z,20.60
2022-12-25T22:44:15.298Z,16.15
2022-12-25T22:46:27.716Z,16.83
2022-12-25T22:48:55.283Z,18.38
2022-12-25T22:51:24.782Z,19.27
2022-12-25T22:53:57.496Z,14.50
2022-12-25T22:56:29.075Z,19.08
2022-12-25T22:58:56.762Z,17.38
2022-12-25T23:01:23.909Z,15.18
2022-12-25T23:03:54.741Z,16.42
2022-12-25T23:06:22.129Z,15.63
2022-12-25T23:08:49.810Z,15.80
2022-12-25T23:11:19.504Z,18.08
2022-12-25T23:13:46.859Z,17.27
2022-12-25T23:16:19.339Z,19.38
2022-12-25T23:18:46.745Z,18.23
2022-12-25T23:21:16.085Z,16.33
2022-12-25T23:23:46.206Z,18.50
2022-12-25T23:26:17.251Z,16.65
2022-12-25T23:28:44.728Z,16.88
2022-12-25T23:31:11.898Z,18.48
2022-12-25T23:33:39.466Z,18.55
2022-12-25T23:36:06.916Z,18.83
2022-12-25T23:38:34.355Z,18.52
2022-12-25T23:41:01.586Z,16.40
2022-12-25T23:43:29.113Z,18.80
2022-12-25T23:45:56.257Z,22.48
2022-12-25T23:48:23.761Z,18.08
2022-12-25T23:50:51.104Z,17.20
2022-12-25T23:53:18.493Z,16.27
2022-12-25T23:55:50.055Z,19.25
2022-12-25T23:58:20.992Z,16.98
